Time;durP1;ratioP1;P1;durP2;ratioP2;P2;SDS_P1;SDS_P2;PMS_P1;PMS_P2;Temp;Humidity;BMP_temperature;BMP_pressure;BME280_temperature;BME280_humidity;BME280_pressure;Samples;Min_cycle;Max_cycle;Signal;HPM_P1;HPM_P2
2021/07/30 00:02:12;;;;;;;;;;;691.30;2432.00;;;;;;5074202;28;19987;-76
2021/07/30 00:04:37;;;;;;;;;;;691.40;2432.00;;;;;;5073830;28;19916;-72
2021/07/30 00:07:03;;;;;;;;;;;691.20;2432.00;;;;;;5074275;28;20070;-72
2021/07/30 00:09:29;;;;;;;;;;;691.20;2432.00;;;;;;5074206;28;19904;-72
2021/07/30 00:11:54;;;;;;;;;;;691.30;2432.00;;;;;;5074506;28;19909;-72
2021/07/30 00:14:20;;;;;;;;;;;691.40;2432.00;;;;;;5074112;28;19911;-72
2021/07/30 00:16:46;;;;;;;;;;;691.20;2432.00;;;;;;5074229;28;19968;-72
2021/07/30 00:19:11;;;;;;;;;;;691.20;2432.00;;;;;;5057308;28;19904;-72
2021/07/30 00:21:37;;;;;;;;;;;666.50;2432.00;;;;;;5073895;28;19911;-72
2021/07/30 00:24:02;;;;;;;;;;;666.40;2432.00;;;;;;5072677;28;19904;-72
2021/07/30 00:26:28;;;;;;;;;;;666.40;2432.00;;;;;;5074127;28;19912;-73
2021/07/30 00:28:54;;;;;;;;;;;666.50;2432.00;;;;;;5073980;28;19908;-75
2021/07/30 00:31:19;;;;;;;;;;;666.50;2432.00;;;;;;5073908;28;19908;-71
2021/07/30 00:33:45;;;;;;;;;;;666.50;2432.00;;;;;;5073916;28;19944;-72
2021/07/30 00:36:10;;;;;;;;;;;666.40;2432.00;;;;;;5071865;28;20358;-72
2021/07/30 00:38:36;;;;;;;;;;;666.40;2432.00;;;;;;5072700;28;19911;-72
2021/07/30 00:41:02;;;;;;;;;;;666.50;2432.00;;;;;;5073432;28;19912;-72
2021/07/30 00:43:27;;;;;;;;;;;666.50;2432.00;;;;;;5061916;28;19955;-72
2021/07/30 00:45:55;;;;;;;;;;;691.20;2432.00;;;;;;5053779;28;20522;-75
2021/07/30 00:48:23;;;;;;;;;;;691.20;2432.00;;;;;;5052676;28;20424;-75
2021/07/30 00:50:49;;;;;;;;;;;691.20;2432.00;;;;;;5052314;28;19908;-71
2021/07/30 00:53:15;;;;;;;;;;;666.50;2432.00;;;;;;5054773;28;19919;-71
2021/07/30 00:55:41;;;;;;;;;;;666.30;2432.00;;;;;;5054284;28;19905;-71
2021/07/30 00:58:07;;;;;;;;;;;666.30;2432.00;;;;;;5057042;28;19904;-72
2021/07/30 01:00:33;;;;;;;;;;;666.30;2432.00;;;;;;5053337;28;19909;-75
2021/07/30 01:03:00;;;;;;;;;;;666.50;2432.00;;;;;;5052453;28;19904;-71
2021/07/30 01:05:26;;;;;;;;;;;666.40;2432.00;;;;;;5051670;28;19944;-71
2021/07/30 01:07:52;;;;;;;;;;;666.20;2432.00;;;;;;5054542;28;20501;-71
2021/07/30 01:10:17;;;;;;;;;;;666.30;2432.00;;;;;;5055717;28;20007;-77
2021/07/30 01:12:44;;;;;;;;;;;666.30;2432.00;;;;;;5053166;28;19909;-73
2021/07/30 01:15:10;;;;;;;;;;;666.30;2432.00;;;;;;5053971;28;20381;-72
2021/07/30 01:17:35;;;;;;;;;;;666.30;2432.00;;;;;;5052332;28;19963;-76
2021/07/30 01:20:01;;;;;;;;;;;666.30;2432.00;;;;;;5052677;28;20275;-72
2021/07/30 01:22:29;;;;;;;;;;;666.30;2432.00;;;;;;5072625;28;19947;-72
2021/07/30 01:24:55;;;;;;;;;;;666.40;2432.00;;;;;;5072760;28;20322;-81
2021/07/30 01:27:21;;;;;;;;;;;666.30;2432.00;;;;;;5072559;28;19912;-83
2021/07/30 01:29:47;;;;;;;;;;;666.30;2432.00;;;;;;5072626;28;19905;-82
2021/07/30 01:32:13;;;;;;;;;;;666.40;2432.00;;;;;;5072247;28;19939;-79
2021/07/30 01:34:39;;;;;;;;;;;666.40;2432.00;;;;;;5072394;28;20363;-73
2021/07/30 01:37:05;;;;;;;;;;;666.40;2432.00;;;;;;5068476;28;19915;-72
2021/07/30 01:39:30;;;;;;;;;;;666.20;2432.00;;;;;;5072606;28;19908;-72
2021/07/30 01:41:56;;;;;;;;;;;666.30;2432.00;;;;;;5067118;28;20347;-75
2021/07/30 01:44:22;;;;;;;;;;;666.30;2432.00;;;;;;5072494;28;19905;-79
2021/07/30 01:46:47;;;;;;;;;;;666.20;2432.00;;;;;;5073427;28;19904;-79
2021/07/30 01:49:13;;;;;;;;;;;666.00;2432.00;;;;;;5072341;28;19949;-73
2021/07/30 01:51:39;;;;;;;;;;;666.00;2432.00;;;;;;5076312;28;19909;-75
2021/07/30 01:54:06;;;;;;;;;;;665.90;2432.00;;;;;;5076108;28;19913;-78
2021/07/30 01:56:32;;;;;;;;;;;665.80;2432.00;;;;;;5076242;28;19943;-75
2021/07/30 01:58:58;;;;;;;;;;;665.90;2432.00;;;;;;5076019;28;19940;-75
2021/07/30 02:01:23;;;;;;;;;;;665.90;2432.00;;;;;;5076064;28;20425;-79
2021/07/30 02:03:49;;;;;;;;;;;666.00;2432.00;;;;;;5076002;28;19904;-71
2021/07/30 02:06:15;;;;;;;;;;;666.10;2432.00;;;;;;5075777;28;19909;-72
2021/07/30 02:08:40;;;;;;;;;;;666.00;2432.00;;;;;;5076041;28;19908;-76
2021/07/30 02:11:07;;;;;;;;;;;666.10;2432.00;;;;;;5075664;28;20342;-72
2021/07/30 02:16:17;;;;;;;;;;;665.80;2432.00;;;;;;5075949;28;19940;-72
2021/07/30 02:18:43;;;;;;;;;;;665.90;2432.00;;;;;;5076016;28;20346;-75
2021/07/30 02:21:08;;;;;;;;;;;665.70;2432.00;;;;;;5075588;28;19970;-76
2021/07/30 02:23:34;;;;;;;;;;;665.80;2432.00;;;;;;5075489;28;19977;-72
2021/07/30 02:25:59;;;;;;;;;;;665.90;2432.00;;;;;;5075675;28;19915;-72
2021/07/30 02:28:25;;;;;;;;;;;665.70;2432.00;;;;;;5075374;28;19905;-75
2021/07/30 02:30:55;;;;;;;;;;;665.60;2432.00;;;;;;5075687;28;19904;-80
2021/07/30 02:33:20;;;;;;;;;;;665.70;2432.00;;;;;;5075355;28;19912;-73
2021/07/30 02:35:46;;;;;;;;;;;665.60;2432.00;;;;;;5062966;28;20388;-77
2021/07/30 02:38:12;;;;;;;;;;;665.60;2432.00;;;;;;5075515;28;19995;-77
2021/07/30 02:40:37;;;;;;;;;;;640.90;2432.00;;;;;;5075098;28;20030;-82
2021/07/30 02:43:03;;;;;;;;;;;640.90;2432.00;;;;;;5067465;28;20374;-81
2021/07/30 02:45:28;;;;;;;;;;;640.90;2432.00;;;;;;5075448;28;19904;-73
2021/07/30 02:47:54;;;;;;;;;;;640.70;2432.00;;;;;;5073807;28;19954;-73
2021/07/30 02:50:20;;;;;;;;;;;640.50;2432.00;;;;;;5075253;28;19905;-79
2021/07/30 02:52:46;;;;;;;;;;;640.40;2432.00;;;;;;5075023;28;19916;-75
2021/07/30 02:55:11;;;;;;;;;;;640.30;2432.00;;;;;;5075145;28;19904;-83
2021/07/30 02:57:37;;;;;;;;;;;640.20;2432.00;;;;;;5056960;28;20313;-73
2021/07/30 03:00:03;;;;;;;;;;;640.20;2432.00;;;;;;5075053;28;20282;-78
2021/07/30 03:02:29;;;;;;;;;;;640.10;2432.00;;;;;;5073829;28;19950;-78
2021/07/30 03:04:54;;;;;;;;;;;640.10;2432.00;;;;;;5075077;28;19909;-76
2021/07/30 03:07:20;;;;;;;;;;;640.00;2432.00;;;;;;5074987;28;19912;-80
2021/07/30 03:09:46;;;;;;;;;;;615.30;2432.00;;;;;;5074744;28;20286;-76
2021/07/30 03:12:11;;;;;;;;;;;615.30;2432.00;;;;;;5074771;28;19995;-77
2021/07/30 03:14:38;;;;;;;;;;;615.20;2432.00;;;;;;5073508;28;19904;-81
2021/07/30 03:17:07;;;;;;;;;;;615.10;2432.00;;;;;;5074866;28;19953;-83
2021/07/30 03:19:34;;;;;;;;;;;615.20;2432.00;;;;;;5074572;28;20393;-73
2021/07/30 03:21:59;;;;;;;;;;;615.30;2432.00;;;;;;5074448;28;19908;-72
2021/07/30 03:24:25;;;;;;;;;;;640.10;2432.00;;;;;;5074857;28;19911;-72
2021/07/30 03:26:51;;;;;;;;;;;640.10;2432.00;;;;;;5074359;28;20359;-75
2021/07/30 03:29:16;;;;;;;;;;;640.20;2432.00;;;;;;5074564;28;19999;-81
2021/07/30 03:31:42;;;;;;;;;;;640.10;2432.00;;;;;;5074332;28;19912;-82
2021/07/30 03:34:07;;;;;;;;;;;640.10;2432.00;;;;;;5071522;28;20454;-80
2021/07/30 03:36:33;;;;;;;;;;;615.30;2432.00;;;;;;5065334;28;19912;-82
2021/07/30 03:38:59;;;;;;;;;;;640.00;2432.00;;;;;;5074724;28;19904;-81
2021/07/30 03:41:24;;;;;;;;;;;640.00;2432.00;;;;;;5073381;28;19971;-80
2021/07/30 03:43:50;;;;;;;;;;;640.10;2432.00;;;;;;5067349;28;19908;-79
2021/07/30 03:46:15;;;;;;;;;;;640.00;2432.00;;;;;;5074163;28;19905;-72
2021/07/30 03:48:41;;;;;;;;;;;640.00;2432.00;;;;;;5074149;28;19905;-76
2021/07/30 03:51:06;;;;;;;;;;;640.00;2432.00;;;;;;5072602;28;19911;-77
2021/07/30 03:53:32;;;;;;;;;;;615.30;2432.00;;;;;;5073963;28;19909;-76
2021/07/30 03:55:58;;;;;;;;;;;615.30;2432.00;;;;;;5073808;28;19904;-81
2021/07/30 03:58:23;;;;;;;;;;;615.30;2432.00;;;;;;5073853;28;19919;-77
2021/07/30 04:00:49;;;;;;;;;;;615.30;2432.00;;;;;;5073697;28;20351;-73
2021/07/30 04:03:14;;;;;;;;;;;615.30;2432.00;;;;;;5073800;28;20279;-76
2021/07/30 04:05:40;;;;;;;;;;;615.20;2432.00;;;;;;5073752;28;19991;-76
2021/07/30 04:08:06;;;;;;;;;;;615.20;2432.00;;;;;;5073831;28;19955;-82
2021/07/30 04:10:32;;;;;;;;;;;615.30;2432.00;;;;;;5073704;28;20348;-80
2021/07/30 04:12:58;;;;;;;;;;;640.00;2432.00;;;;;;5073273;28;19935;-76
2021/07/30 04:15:23;;;;;;;;;;;615.30;2432.00;;;;;;5073284;28;19951;-72
2021/07/30 04:17:50;;;;;;;;;;;615.30;2432.00;;;;;;5073280;28;20412;-72
2021/07/30 04:20:16;;;;;;;;;;;615.30;2432.00;;;;;;5073723;28;19904;-72
2021/07/30 04:22:41;;;;;;;;;;;640.00;2432.00;;;;;;5073276;28;19904;-71
2021/07/30 04:25:07;;;;;;;;;;;615.30;2432.00;;;;;;5073405;28;19950;-73
2021/07/30 04:27:33;;;;;;;;;;;640.00;2432.00;;;;;;5073348;28;20358;-72
2021/07/30 04:29:58;;;;;;;;;;;640.00;2432.00;;;;;;5073073;28;19904;-72
2021/07/30 04:32:24;;;;;;;;;;;640.00;2432.00;;;;;;5073043;28;19957;-72
2021/07/30 04:34:49;;;;;;;;;;;640.00;2432.00;;;;;;5064904;28;19905;-72
2021/07/30 04:37:15;;;;;;;;;;;640.00;2432.00;;;;;;5067974;28;19999;-72
2021/07/30 04:39:41;;;;;;;;;;;640.10;2432.00;;;;;;5073072;28;19904;-72
2021/07/30 04:42:06;;;;;;;;;;;640.20;2432.00;;;;;;5066167;28;19916;-72
2021/07/30 04:44:33;;;;;;;;;;;640.20;2432.00;;;;;;5071903;28;19905;-72
2021/07/30 04:46:58;;;;;;;;;;;640.20;2432.00;;;;;;5073113;28;19928;-73
2021/07/30 04:49:24;;;;;;;;;;;640.20;2432.00;;;;;;5072888;28;20003;-72
2021/07/30 04:51:50;;;;;;;;;;;640.30;2432.00;;;;;;5073067;28;20259;-72
2021/07/30 04:54:15;;;;;;;;;;;640.20;2432.00;;;;;;5072706;28;19912;-72
2021/07/30 04:56:41;;;;;;;;;;;640.20;2432.00;;;;;;5072948;28;19908;-72
2021/07/30 04:59:06;;;;;;;;;;;640.30;2432.00;;;;;;5072789;28;19904;-72
2021/07/30 05:01:33;;;;;;;;;;;640.40;2432.00;;;;;;5073213;28;19953;-75
2021/07/30 05:03:58;;;;;;;;;;;640.40;2432.00;;;;;;5072987;28;20366;-75
2021/07/30 05:06:25;;;;;;;;;;;640.40;2432.00;;;;;;5073004;28;19908;-72
2021/07/30 05:08:51;;;;;;;;;;;640.50;2432.00;;;;;;5073151;28;19911;-72
2021/07/30 05:11:17;;;;;;;;;;;640.50;2432.00;;;;;;5072726;28;19904;-72
2021/07/30 05:13:43;;;;;;;;;;;640.60;2432.00;;;;;;5072876;28;19947;-72
2021/07/30 05:16:09;;;;;;;;;;;640.60;2432.00;;;;;;5072362;28;19974;-72
2021/07/30 05:18:35;;;;;;;;;;;640.70;2432.00;;;;;;5072694;28;19912;-72
2021/07/30 05:21:04;;;;;;;;;;;640.80;2432.00;;;;;;5072877;28;19927;-75
2021/07/30 05:23:31;;;;;;;;;;;640.80;2432.00;;;;;;5072604;28;19957;-76
2021/07/30 05:25:56;;;;;;;;;;;640.80;2432.00;;;;;;5075366;28;19910;-77
2021/07/30 05:28:22;;;;;;;;;;;665.60;2432.00;;;;;;5076669;28;19908;-75
2021/07/30 05:30:48;;;;;;;;;;;665.60;2432.00;;;;;;5076976;28;19912;-72
2021/07/30 05:33:13;;;;;;;;;;;665.60;2432.00;;;;;;5076383;28;19956;-72
2021/07/30 05:35:39;;;;;;;;;;;665.60;2432.00;;;;;;5064011;28;19912;-72
2021/07/30 05:38:04;;;;;;;;;;;665.60;2432.00;;;;;;5076546;28;19904;-72
2021/07/30 05:40:30;;;;;;;;;;;665.60;2432.00;;;;;;5076163;28;19904;-73
2021/07/30 05:42:56;;;;;;;;;;;665.60;2432.00;;;;;;5069800;28;20286;-72
2021/07/30 05:45:21;;;;;;;;;;;665.60;2432.00;;;;;;5076118;28;19912;-73
2021/07/30 05:47:48;;;;;;;;;;;665.60;2432.00;;;;;;5076130;28;19908;-72
2021/07/30 05:50:13;;;;;;;;;;;665.60;2432.00;;;;;;5076561;28;19958;-73
2021/07/30 05:52:39;;;;;;;;;;;665.60;2432.00;;;;;;5076070;28;19908;-73
2021/07/30 05:55:05;;;;;;;;;;;665.70;2432.00;;;;;;5076175;28;19904;-73
2021/07/30 05:57:34;;;;;;;;;;;665.70;2432.00;;;;;;5075948;28;19915;-75
2021/07/30 06:00:00;;;;;;;;;;;665.80;2432.00;;;;;;5076127;28;19915;-72
2021/07/30 06:02:25;;;;;;;;;;;665.80;2432.00;;;;;;5076010;28;19970;-73
2021/07/30 06:04:51;;;;;;;;;;;665.80;2432.00;;;;;;5075757;28;20367;-73
2021/07/30 06:07:16;;;;;;;;;;;665.90;2432.00;;;;;;5076267;28;19904;-76
2021/07/30 06:09:42;;;;;;;;;;;666.00;2432.00;;;;;;5076103;28;20436;-73
2021/07/30 06:12:08;;;;;;;;;;;666.10;2432.00;;;;;;5075892;28;19928;-75
2021/07/30 06:14:33;;;;;;;;;;;666.20;2432.00;;;;;;5075848;28;19908;-77
2021/07/30 06:16:59;;;;;;;;;;;666.30;2432.00;;;;;;5075974;28;20324;-77
2021/07/30 06:19:24;;;;;;;;;;;666.30;2432.00;;;;;;5075583;28;19995;-76
2021/07/30 06:21:50;;;;;;;;;;;666.40;2432.00;;;;;;5075638;28;19908;-74
2021/07/30 06:24:15;;;;;;;;;;;666.50;2432.00;;;;;;5075638;28;19905;-74
2021/07/30 06:26:41;;;;;;;;;;;691.20;2432.00;;;;;;5075561;28;19911;-72
2021/07/30 06:29:06;;;;;;;;;;;691.20;2432.00;;;;;;5075518;28;20038;-72
2021/07/30 06:31:32;;;;;;;;;;;691.30;2432.00;;;;;;5075418;28;20397;-72
2021/07/30 06:33:58;;;;;;;;;;;691.40;2432.00;;;;;;5073994;28;19908;-72
2021/07/30 06:36:23;;;;;;;;;;;691.60;2432.00;;;;;;5064371;28;19912;-72
2021/07/30 06:38:49;;;;;;;;;;;691.60;2432.00;;;;;;5075209;28;19904;-72
2021/07/30 06:41:15;;;;;;;;;;;691.60;2432.00;;;;;;5075253;28;19923;-72
2021/07/30 06:43:41;;;;;;;;;;;691.70;2432.00;;;;;;5068645;28;19977;-72
2021/07/30 06:46:06;;;;;;;;;;;691.80;2432.00;;;;;;5074853;28;19955;-73
2021/07/30 06:48:32;;;;;;;;;;;692.10;2432.00;;;;;;5075246;28;19908;-72
2021/07/30 06:50:58;;;;;;;;;;;716.80;2432.00;;;;;;5074860;28;20409;-72
2021/07/30 06:53:23;;;;;;;;;;;717.00;2432.00;;;;;;5075079;28;19919;-72
2021/07/30 06:55:49;;;;;;;;;;;717.20;2432.00;;;;;;5075010;28;19905;-72
2021/07/30 06:58:14;;;;;;;;;;;717.40;2432.00;;;;;;5074319;28;19930;-72
2021/07/30 07:00:40;;;;;;;;;;;717.40;2432.00;;;;;;5074928;28;20232;-73
2021/07/30 07:03:05;;;;;;;;;;;717.60;2432.00;;;;;;5074843;28;19958;-72
2021/07/30 07:05:33;;;;;;;;;;;717.60;2432.00;;;;;;5074917;28;20006;-72
2021/07/30 07:07:58;;;;;;;;;;;717.70;2432.00;;;;;;5074668;28;19905;-72
2021/07/30 07:10:24;;;;;;;;;;;742.50;2432.00;;;;;;5074426;28;19966;-73
2021/07/30 07:12:50;;;;;;;;;;;742.70;2432.00;;;;;;5074123;28;19912;-72
2021/07/30 07:15:15;;;;;;;;;;;742.90;2432.00;;;;;;5074287;28;20351;-72
2021/07/30 07:17:41;;;;;;;;;;;742.90;2432.00;;;;;;5074629;28;19973;-73
2021/07/30 07:20:07;;;;;;;;;;;743.00;2432.00;;;;;;5074524;28;20406;-72
2021/07/30 07:22:32;;;;;;;;;;;743.30;2432.00;;;;;;5075013;28;19963;-73
2021/07/30 07:24:58;;;;;;;;;;;768.10;2432.00;;;;;;5056131;28;20002;-73
2021/07/30 07:27:24;;;;;;;;;;;768.40;2432.00;;;;;;5074062;28;19908;-72
2021/07/30 07:29:49;;;;;;;;;;;768.60;2432.00;;;;;;5073888;28;19908;-73
2021/07/30 07:32:15;;;;;;;;;;;768.70;2432.00;;;;;;5073836;28;19916;-72
2021/07/30 07:34:40;;;;;;;;;;;768.90;2432.00;;;;;;5071559;28;20362;-73
2021/07/30 07:37:06;;;;;;;;;;;793.70;2432.00;;;;;;5073823;28;20329;-73
2021/07/30 07:39:32;;;;;;;;;;;794.10;2432.00;;;;;;5073776;28;19911;-75
2021/07/30 07:41:58;;;;;;;;;;;794.20;2432.00;;;;;;5072647;28;19917;-72
2021/07/30 07:44:25;;;;;;;;;;;794.20;2432.00;;;;;;5073620;28;19904;-74
2021/07/30 07:46:51;;;;;;;;;;;819.20;2432.00;;;;;;5073529;28;19979;-73
2021/07/30 07:49:16;;;;;;;;;;;819.50;2432.00;;;;;;5073180;28;19947;-71
2021/07/30 07:51:42;;;;;;;;;;;819.80;2432.00;;;;;;5073617;28;20349;-76
2021/07/30 07:54:08;;;;;;;;;;;820.10;2432.00;;;;;;5073308;28;19908;-77
2021/07/30 07:56:34;;;;;;;;;;;844.90;2432.00;;;;;;5073650;28;19909;-73
2021/07/30 07:59:00;;;;;;;;;;;845.20;2432.00;;;;;;5073508;28;19904;-71
2021/07/30 08:01:26;;;;;;;;;;;845.40;2432.00;;;;;;5073175;28;19912;-72
2021/07/30 08:03:51;;;;;;;;;;;845.70;2432.00;;;;;;5073371;28;19953;-72
2021/07/30 08:06:20;;;;;;;;;;;870.50;2432.00;;;;;;5073455;28;19944;-71
2021/07/30 08:08:47;;;;;;;;;;;870.80;2432.00;;;;;;5073192;28;20376;-73
2021/07/30 08:11:12;;;;;;;;;;;870.90;2432.00;;;;;;5073086;28;19909;-74
2021/07/30 08:13:38;;;;;;;;;;;871.10;2380.80;;;;;;5073135;28;19915;-74
2021/07/30 08:16:04;;;;;;;;;;;896.00;2304.00;;;;;;5073234;28;19914;-76
2021/07/30 08:18:29;;;;;;;;;;;896.50;2278.40;;;;;;5072975;28;19905;-76
2021/07/30 08:20:55;;;;;;;;;;;896.50;2252.80;;;;;;5073264;28;20345;-75
2021/07/30 08:23:20;;;;;;;;;;;896.90;2227.20;;;;;;5070334;28;19991;-71
2021/07/30 08:25:46;;;;;;;;;;;921.80;2176.00;;;;;;5065572;28;19920;-78
2021/07/30 08:28:13;;;;;;;;;;;922.10;2124.80;;;;;;5072644;28;20011;-77
2021/07/30 08:30:42;;;;;;;;;;;922.50;2124.80;;;;;;5073071;28;19911;-73
2021/07/30 08:33:08;;;;;;;;;;;947.50;2099.20;;;;;;5072491;28;20362;-73
2021/07/30 08:35:34;;;;;;;;;;;947.90;2022.40;;;;;;5055373;28;19908;-71
2021/07/30 08:38:00;;;;;;;;;;;973.10;2022.40;;;;;;5072903;28;19927;-72
2021/07/30 08:40:30;;;;;;;;;;;998.40;1971.20;;;;;;5072486;28;19908;-72
2021/07/30 08:42:55;;;;;;;;;;;999.10;1868.80;;;;;;5072417;28;19917;-82
2021/07/30 08:45:21;;;;;;;;;;;1024.50;1792.00;;;;;;5056194;28;19930;-72
2021/07/30 08:47:47;;;;;;;;;;;1050.00;1715.20;;;;;;5072442;28;19912;-72
2021/07/30 08:50:13;;;;;;;;;;;1075.30;1664.00;;;;;;5072662;28;19914;-76
2021/07/30 08:52:41;;;;;;;;;;;1075.20;1638.40;;;;;;5072638;28;20003;-73
2021/07/30 08:55:07;;;;;;;;;;;1075.70;1587.20;;;;;;5071929;28;19991;-71
2021/07/30 08:57:34;;;;;;;;;;;1101.00;1561.60;;;;;;5072811;28;19999;-72
2021/07/30 09:00:10;;;;;;;;;;;1101.20;1561.60;;;;;;5071726;28;19911;-72
2021/07/30 09:02:35;;;;;;;;;;;1101.30;1561.60;;;;;;5072596;28;19912;-71
2021/07/30 09:05:19;;;;;;;;;;;1101.00;1561.60;;;;;;5072714;28;20270;-73
2021/07/30 09:07:45;;;;;;;;;;;1075.70;1561.60;;;;;;5072217;28;19950;-72
2021/07/30 09:10:10;;;;;;;;;;;1050.00;1638.40;;;;;;5072504;28;19999;-72
2021/07/30 09:12:36;;;;;;;;;;;1024.50;1587.20;;;;;;5072280;28;19915;-71
2021/07/30 09:15:19;;;;;;;;;;;999.10;1689.60;;;;;;5072270;28;19911;-71
2021/07/30 09:17:45;;;;;;;;;;;998.70;1715.20;;;;;;5072387;28;20002;-76
2021/07/30 09:20:10;;;;;;;;;;;973.50;1740.80;;;;;;5072382;28;19944;-76
2021/07/30 09:22:49;;;;;;;;;;;973.20;1766.40;;;;;;5072612;28;19911;-71
2021/07/30 09:25:34;;;;;;;;;;;972.80;1792.00;;;;;;5071961;28;19912;-71
2021/07/30 09:28:04;;;;;;;;;;;948.00;1715.20;;;;;;5072812;28;20587;-71
2021/07/30 09:30:29;;;;;;;;;;;947.60;1740.80;;;;;;5059050;28;20362;-72
2021/07/30 09:32:55;;;;;;;;;;;947.20;1817.60;;;;;;5072520;28;19923;-72
2021/07/30 09:35:20;;;;;;;;;;;922.40;1792.00;;;;;;5060240;28;20259;-72
2021/07/30 09:37:46;;;;;;;;;;;922.00;1843.20;;;;;;5072517;28;19908;-72
2021/07/30 09:40:21;;;;;;;;;;;921.70;1817.60;;;;;;5069835;28;19912;-72
2021/07/30 09:42:46;;;;;;;;;;;896.80;1843.20;;;;;;5068376;28;19923;-73
2021/07/30 09:45:15;;;;;;;;;;;896.80;1766.40;;;;;;5072348;28;20062;-72
2021/07/30 09:47:47;;;;;;;;;;;896.60;1817.60;;;;;;5072128;28;19958;-72
2021/07/30 09:50:13;;;;;;;;;;;896.40;1843.20;;;;;;5072322;28;19904;-73
2021/07/30 09:52:40;;;;;;;;;;;896.10;1843.20;;;;;;5071986;28;19922;-72
2021/07/30 09:55:08;;;;;;;;;;;871.30;1920.00;;;;;;5072518;28;19908;-72
2021/07/30 09:57:34;;;;;;;;;;;871.20;1920.00;;;;;;5071993;28;19911;-74
2021/07/30 10:00:04;;;;;;;;;;;871.00;1945.60;;;;;;5072335;28;19959;-76
2021/07/30 10:02:30;;;;;;;;;;;870.90;1920.00;;;;;;5057208;28;20338;-72
2021/07/30 10:04:56;;;;;;;;;;;870.80;1945.60;;;;;;5061113;28;20306;-72
2021/07/30 10:07:22;;;;;;;;;;;870.60;1996.80;;;;;;5072146;28;19904;-72
2021/07/30 10:09:53;;;;;;;;;;;870.40;1996.80;;;;;;5071898;28;19904;-72
2021/07/30 10:12:18;;;;;;;;;;;845.70;1996.80;;;;;;5075614;28;19979;-72
2021/07/30 10:14:45;;;;;;;;;;;845.70;2022.40;;;;;;5075905;28;19920;-72
2021/07/30 10:17:13;;;;;;;;;;;845.50;2022.40;;;;;;5075977;28;19916;-72
2021/07/30 10:19:40;;;;;;;;;;;845.70;1945.60;;;;;;5075491;28;19973;-72
2021/07/30 10:22:06;;;;;;;;;;;845.60;1996.80;;;;;;5075793;28;19908;-81
2021/07/30 10:24:34;;;;;;;;;;;845.60;1945.60;;;;;;5075779;28;19905;-79
2021/07/30 10:27:01;;;;;;;;;;;845.40;2022.40;;;;;;5059695;28;20282;-72
2021/07/30 10:29:26;;;;;;;;;;;845.40;1971.20;;;;;;5075118;28;19954;-75
2021/07/30 10:31:52;;;;;;;;;;;845.40;1996.80;;;;;;5074954;28;19935;-76
2021/07/30 10:34:38;;;;;;;;;;;845.40;2022.40;;;;;;5073340;28;19983;-72
2021/07/30 10:37:03;;;;;;;;;;;845.40;2022.40;;;;;;5074825;28;19904;-72
2021/07/30 10:39:29;;;;;;;;;;;845.20;2048.00;;;;;;5074893;28;20259;-73
2021/07/30 10:42:11;;;;;;;;;;;845.30;2048.00;;;;;;5074894;28;19962;-76
2021/07/30 10:44:55;;;;;;;;;;;845.20;2048.00;;;;;;5068930;28;20259;-74
2021/07/30 10:47:21;;;;;;;;;;;845.20;2048.00;;;;;;5069608;28;20038;-74
2021/07/30 10:49:47;;;;;;;;;;;845.30;2022.40;;;;;;5074711;28;20389;-74
2021/07/30 10:52:33;;;;;;;;;;;845.40;2048.00;;;;;;5074720;28;19909;-79
2021/07/30 10:54:58;;;;;;;;;;;845.40;2048.00;;;;;;5074198;28;19934;-78
2021/07/30 10:57:42;;;;;;;;;;;845.20;2048.00;;;;;;5074400;28;19904;-78
2021/07/30 11:00:08;;;;;;;;;;;845.20;2073.60;;;;;;5074081;28;19904;-75
2021/07/30 11:02:52;;;;;;;;;;;845.10;1996.80;;;;;;5075030;28;19908;-75
2021/07/30 11:05:18;;;;;;;;;;;845.50;1945.60;;;;;;5074746;28;20290;-75
2021/07/30 11:07:43;;;;;;;;;;;870.50;1792.00;;;;;;5074217;28;19908;-70
2021/07/30 11:10:14;;;;;;;;;;;870.60;1792.00;;;;;;5074779;28;19904;-71
2021/07/30 11:12:40;;;;;;;;;;;870.80;1766.40;;;;;;5074599;28;19915;-71
2021/07/30 11:15:09;;;;;;;;;;;870.90;1817.60;;;;;;5073979;28;19908;-73
2021/07/30 11:17:34;;;;;;;;;;;871.10;1817.60;;;;;;5062896;28;19959;-74
2021/07/30 11:20:01;;;;;;;;;;;871.10;1817.60;;;;;;5055881;28;19935;-71
2021/07/30 11:22:27;;;;;;;;;;;871.10;1817.60;;;;;;5053144;28;19954;-71
2021/07/30 11:24:53;;;;;;;;;;;871.10;1843.20;;;;;;5054577;28;19916;-70
2021/07/30 11:27:19;;;;;;;;;;;871.20;1817.60;;;;;;5059942;28;19912;-71
2021/07/30 11:29:46;;;;;;;;;;;871.20;1868.80;;;;;;5066755;28;19909;-71
2021/07/30 11:32:14;;;;;;;;;;;871.20;1843.20;;;;;;5065896;28;19908;-71
2021/07/30 11:34:40;;;;;;;;;;;871.30;1894.40;;;;;;5071252;28;20341;-71
2021/07/30 11:37:07;;;;;;;;;;;871.30;1843.20;;;;;;5073254;28;19911;-71
2021/07/30 11:39:40;;;;;;;;;;;871.30;1894.40;;;;;;5073987;28;19908;-71
2021/07/30 11:42:07;;;;;;;;;;;896.00;1894.40;;;;;;5072540;28;19995;-71
2021/07/30 11:44:48;;;;;;;;;;;896.00;1868.80;;;;;;5073963;28;19927;-71
2021/07/30 11:47:14;;;;;;;;;;;896.00;1868.80;;;;;;5073565;28;19908;-71
2021/07/30 11:49:41;;;;;;;;;;;896.00;1817.60;;;;;;5074256;28;19912;-70
2021/07/30 11:52:07;;;;;;;;;;;896.00;1843.20;;;;;;5073398;28;19908;-70
2021/07/30 11:54:33;;;;;;;;;;;896.00;1843.20;;;;;;5073355;28;20427;-70
2021/07/30 11:56:59;;;;;;;;;;;896.00;1843.20;;;;;;5073521;28;19962;-70
2021/07/30 11:59:26;;;;;;;;;;;871.30;1817.60;;;;;;5073621;28;19944;-70
2021/07/30 12:02:07;;;;;;;;;;;871.30;1868.80;;;;;;5073582;28;19904;-72
2021/07/30 12:04:33;;;;;;;;;;;896.00;1894.40;;;;;;5073166;28;19913;-70
2021/07/30 12:07:06;;;;;;;;;;;896.00;1894.40;;;;;;5073471;28;19909;-72
2021/07/30 12:09:32;;;;;;;;;;;896.00;1868.80;;;;;;5073383;28;19974;-69
2021/07/30 12:11:59;;;;;;;;;;;896.10;1894.40;;;;;;5072695;28;19944;-73
2021/07/30 12:14:26;;;;;;;;;;;896.10;1868.80;;;;;;5072332;28;19958;-70
2021/07/30 12:16:53;;;;;;;;;;;896.10;1894.40;;;;;;5070201;28;19911;-71
2021/07/30 12:19:27;;;;;;;;;;;896.10;1843.20;;;;;;5072829;28;19927;-70
2021/07/30 12:21:53;;;;;;;;;;;896.20;1843.20;;;;;;5072220;28;20379;-76
2021/07/30 12:24:19;;;;;;;;;;;896.10;1843.20;;;;;;5072481;28;19911;-81
2021/07/30 12:26:44;;;;;;;;;;;896.10;1868.80;;;;;;5072344;28;20027;-74
2021/07/30 12:29:33;;;;;;;;;;;896.20;1868.80;;;;;;5072544;28;19904;-70
2021/07/30 12:32:10;;;;;;;;;;;896.20;1843.20;;;;;;5071882;28;19911;-71
2021/07/30 12:34:36;;;;;;;;;;;896.20;1817.60;;;;;;5071152;28;19912;-70
2021/07/30 12:37:08;;;;;;;;;;;896.20;1792.00;;;;;;5071284;28;19966;-71
2021/07/30 12:39:44;;;;;;;;;;;896.20;1817.60;;;;;;5072637;28;20154;-72
2021/07/30 12:42:15;;;;;;;;;;;896.20;1817.60;;;;;;5066019;28;19924;-71
2021/07/30 12:44:41;;;;;;;;;;;896.20;1817.60;;;;;;5068710;28;19919;-71
2021/07/30 12:47:11;;;;;;;;;;;896.30;1843.20;;;;;;5063349;28;19908;-71
2021/07/30 12:49:38;;;;;;;;;;;896.30;1817.60;;;;;;5066919;28;20362;-72
2021/07/30 12:52:12;;;;;;;;;;;896.30;1868.80;;;;;;5072072;28;19934;-77
2021/07/30 12:54:38;;;;;;;;;;;896.30;1843.20;;;;;;5072161;28;19908;-77
2021/07/30 12:57:04;;;;;;;;;;;896.30;1868.80;;;;;;5072413;28;19916;-71
